Reklama
Líbí se Vám tento web? Budeme velmi rádi, pokud přidáte hodnocení +1

Seznam meteostanic a jejich METAR

Vyhledat místa podle abecedy:
A B C D E F G H I J K L M N O P Q R S T U V W X Y Z

Filtrovat:

ID stanice:
a/nebo
Název místa (fulltext):
 
Místo (ID)Naposledy načteno 
Jakarta (WIII) 21.06.2018 02:00 UTC Zobrazit METAR
WIII 210200Z 11008KT 9999 FEW020 30/23 Q1013 NOSIG
Jerusalem (LLJR) Zatím nenačteno  
Joensuu (EFJO) 21.06.2018 01:50 UTC Zobrazit METAR
EFJO 210150Z AUTO 24004KT 210V270 CAVOK 11/05 Q1003
Johannesburg (FAJS) 09.01.2013 23:00 UTC Zobrazit METAR
FAJS 092300Z 01010KT 340V040 CAVOK 22/11 Q1020 NOSIG
Johnston I (PJON) Zatím nenačteno  
Reklama

Počasí na Váš email

Emaily jsou bez reklamy a bez spamu



Odhlásit newsletter

Reklama


Lunární kalendář

  • 28.06.
  • 06.07.
  • 13.07.
  • 19.07.



Slunečno.cz na Google+

Reklama


Reklama
Povinné ručení
Reklama




Reklama